Terminal Aerodrome Forecast
Issued by NWS Milwaukee/Sullivan, WI

Home | Current Version | Previous Version | Text Only | Print | Product List | Glossary On
Versions: 1 2 3 4 5 6 7 8 9 10 11 12 13 14 15 16 17 18 19 20 21 22 23 24 25 26 27 28 29 30 31 32 33 34 35 36 37 38 39 40
000
FTUS43 KMKX 041722
TAFMSN
TAF
KMSN 041722Z 0418/0518 VRB03KT P6SM FEW040 SCT250
     FM042000 23005KT P6SM SCT040
     FM050200 VRB03KT P6SM SCT200
     FM051700 19007KT P6SM FEW250=

USA.gov is the U.S. government's official web portal to all federal, state and local government web resources and services.